sensor_id;sensor_type;location;lat;lon;timestamp;pressure;altitude;pressure_sealevel;temperature;humidity
39267;BME280;24967;51.154;13.812;2023-02-21T00:02:39;99389.78;;;9.54;79.14
39267;BME280;24967;51.154;13.812;2023-02-21T00:05:23;99387.22;;;9.62;78.71
39267;BME280;24967;51.154;13.812;2023-02-21T00:08:07;99399.66;;;9.62;77.99
39267;BME280;24967;51.154;13.812;2023-02-21T00:10:50;99390.19;;;9.59;78.22
39267;BME280;24967;51.154;13.812;2023-02-21T00:13:36;99389.88;;;9.62;77.32
39267;BME280;24967;51.154;13.812;2023-02-21T00:16:21;99382.25;;;9.77;76.70
39267;BME280;24967;51.154;13.812;2023-02-21T00:19:05;99391.16;;;9.58;76.61
39267;BME280;24967;51.154;13.812;2023-02-21T00:21:49;99379.75;;;9.76;75.89
39267;BME280;24967;51.154;13.812;2023-02-21T00:24:34;99381.50;;;9.85;75.79
39267;BME280;24967;51.154;13.812;2023-02-21T00:27:17;99383.41;;;9.65;76.39
39267;BME280;24967;51.154;13.812;2023-02-21T00:30:04;99381.47;;;9.67;76.85
39267;BME280;24967;51.154;13.812;2023-02-21T00:32:48;99385.81;;;9.86;76.49
39267;BME280;24967;51.154;13.812;2023-02-21T00:35:32;99381.94;;;9.53;77.58
39267;BME280;24967;51.154;13.812;2023-02-21T00:38:16;99377.69;;;9.70;77.55
39267;BME280;24967;51.154;13.812;2023-02-21T00:41:00;99377.97;;;9.67;78.00
39267;BME280;24967;51.154;13.812;2023-02-21T00:43:44;99383.09;;;9.78;77.37
39267;BME280;24967;51.154;13.812;2023-02-21T00:46:29;99372.06;;;9.73;77.63
39267;BME280;24967;51.154;13.812;2023-02-21T00:49:13;99375.09;;;9.60;78.45
39267;BME280;24967;51.154;13.812;2023-02-21T00:51:57;99367.47;;;9.75;78.11
39267;BME280;24967;51.154;13.812;2023-02-21T00:54:41;99374.88;;;9.71;77.65
39267;BME280;24967;51.154;13.812;2023-02-21T00:57:25;99368.78;;;9.61;77.81
39267;BME280;24967;51.154;13.812;2023-02-21T01:00:14;99362.59;;;9.70;77.90
39267;BME280;24967;51.154;13.812;2023-02-21T01:03:00;99363.78;;;9.58;77.88
39267;BME280;24967;51.154;13.812;2023-02-21T01:05:44;99353.47;;;9.55;77.97
39267;BME280;24967;51.154;13.812;2023-02-21T01:08:28;99356.53;;;9.78;77.25
39267;BME280;24967;51.154;13.812;2023-02-21T01:11:14;99349.81;;;9.56;77.39
39267;BME280;24967;51.154;13.812;2023-02-21T01:13:58;99349.91;;;9.64;77.16
39267;BME280;24967;51.154;13.812;2023-02-21T01:16:42;99347.41;;;9.62;76.97
39267;BME280;24967;51.154;13.812;2023-02-21T01:19:27;99343.19;;;9.70;76.91
39267;BME280;24967;51.154;13.812;2023-02-21T01:22:11;99347.16;;;9.83;75.83
39267;BME280;24967;51.154;13.812;2023-02-21T01:24:55;99348.88;;;9.75;76.20
39267;BME280;24967;51.154;13.812;2023-02-21T01:27:39;99332.47;;;9.79;76.50
39267;BME280;24967;51.154;13.812;2023-02-21T01:30:23;99347.22;;;9.92;75.87
39267;BME280;24967;51.154;13.812;2023-02-21T01:33:07;99346.28;;;9.83;75.98
39267;BME280;24967;51.154;13.812;2023-02-21T01:35:53;99328.44;;;9.57;76.66
39267;BME280;24967;51.154;13.812;2023-02-21T01:38:37;99333.59;;;9.59;77.12
39267;BME280;24967;51.154;13.812;2023-02-21T01:41:21;99346.56;;;9.62;77.37
39267;BME280;24967;51.154;13.812;2023-02-21T01:44:25;99340.94;;;9.65;76.81
39267;BME280;24967;51.154;13.812;2023-02-21T01:47:12;99341.94;;;9.64;77.29
39267;BME280;24967;51.154;13.812;2023-02-21T01:49:57;99322.38;;;9.47;77.55
39267;BME280;24967;51.154;13.812;2023-02-21T01:52:43;99327.38;;;9.50;77.67
39267;BME280;24967;51.154;13.812;2023-02-21T01:55:28;99336.94;;;9.61;77.52
39267;BME280;24967;51.154;13.812;2023-02-21T01:58:12;99329.16;;;9.59;77.74
39267;BME280;24967;51.154;13.812;2023-02-21T02:00:56;99336.28;;;9.77;77.14
39267;BME280;24967;51.154;13.812;2023-02-21T02:03:42;99324.84;;;9.94;76.38
39267;BME280;24967;51.154;13.812;2023-02-21T02:06:26;99326.78;;;9.92;76.30
39267;BME280;24967;51.154;13.812;2023-02-21T02:09:15;99328.78;;;9.90;76.31
39267;BME280;24967;51.154;13.812;2023-02-21T02:12:12;99315.28;;;9.83;76.71
39267;BME280;24967;51.154;13.812;2023-02-21T02:18:16;99324.75;;;10.04;75.82
39267;BME280;24967;51.154;13.812;2023-02-21T02:21:19;99333.72;;;10.03;76.06
39267;BME280;24967;51.154;13.812;2023-02-21T02:24:12;99316.25;;;9.82;76.75
39267;BME280;24967;51.154;13.812;2023-02-21T02:30:23;99308.69;;;10.05;76.35
39267;BME280;24967;51.154;13.812;2023-02-21T02:35:53;99303.81;;;9.83;76.92
39267;BME280;24967;51.154;13.812;2023-02-21T02:38:25;99312.94;;;9.80;77.08
39267;BME280;24967;51.154;13.812;2023-02-21T02:40:58;99300.41;;;9.73;77.52
39267;BME280;24967;51.154;13.812;2023-02-21T02:43:29;99295.25;;;9.89;77.71
39267;BME280;24967;51.154;13.812;2023-02-21T02:46:00;99296.09;;;9.90;77.39
39267;BME280;24967;51.154;13.812;2023-02-21T02:48:33;99292.84;;;9.96;77.29
39267;BME280;24967;51.154;13.812;2023-02-21T02:51:06;99294.66;;;9.77;77.82
39267;BME280;24967;51.154;13.812;2023-02-21T02:53:33;99293.75;;;9.86;77.75
39267;BME280;24967;51.154;13.812;2023-02-21T02:56:02;99289.94;;;9.89;77.43
39267;BME280;24967;51.154;13.812;2023-02-21T02:58:32;99291.84;;;9.97;77.55
39267;BME280;24967;51.154;13.812;2023-02-21T03:01:11;99291.31;;;9.93;77.27
39267;BME280;24967;51.154;13.812;2023-02-21T03:03:51;99292.75;;;10.05;77.36
39267;BME280;24967;51.154;13.812;2023-02-21T03:06:31;99283.25;;;9.85;78.08
39267;BME280;24967;51.154;13.812;2023-02-21T03:09:06;99280.53;;;9.95;77.78
39267;BME280;24967;51.154;13.812;2023-02-21T03:11:36;99295.19;;;9.99;77.55
39267;BME280;24967;51.154;13.812;2023-02-21T03:14:12;99290.84;;;9.98;77.79
39267;BME280;24967;51.154;13.812;2023-02-21T03:16:42;99285.09;;;10.02;77.63
39267;BME280;24967;51.154;13.812;2023-02-21T03:19:13;99284.47;;;10.08;77.53
39267;BME280;24967;51.154;13.812;2023-02-21T03:21:45;99285.38;;;9.99;77.60
39267;BME280;24967;51.154;13.812;2023-02-21T03:24:13;99283.38;;;10.19;77.02
39267;BME280;24967;51.154;13.812;2023-02-21T03:26:43;99277.94;;;10.03;77.76
39267;BME280;24967;51.154;13.812;2023-02-21T03:29:11;99280.56;;;10.21;77.26
39267;BME280;24967;51.154;13.812;2023-02-21T03:31:42;99274.81;;;10.07;77.44
39267;BME280;24967;51.154;13.812;2023-02-21T03:34:09;99273.00;;;10.08;77.74
39267;BME280;24967;51.154;13.812;2023-02-21T03:36:37;99273.75;;;10.18;77.23
39267;BME280;24967;51.154;13.812;2023-02-21T03:39:05;99264.75;;;10.11;77.49
39267;BME280;24967;51.154;13.812;2023-02-21T03:41:31;99278.69;;;10.13;77.69
39267;BME280;24967;51.154;13.812;2023-02-21T03:43:58;99286.75;;;10.03;78.12
39267;BME280;24967;51.154;13.812;2023-02-21T03:46:24;99282.44;;;10.02;78.06
39267;BME280;24967;51.154;13.812;2023-02-21T03:48:51;99283.41;;;10.01;78.19
39267;BME280;24967;51.154;13.812;2023-02-21T03:51:18;99282.94;;;10.06;78.38
39267;BME280;24967;51.154;13.812;2023-02-21T03:53:45;99284.59;;;10.07;78.93
39267;BME280;24967;51.154;13.812;2023-02-21T03:56:16;99272.78;;;10.01;79.00
39267;BME280;24967;51.154;13.812;2023-02-21T03:58:42;99271.88;;;10.11;78.84
39267;BME280;24967;51.154;13.812;2023-02-21T04:01:09;99268.75;;;9.97;79.56
39267;BME280;24967;51.154;13.812;2023-02-21T04:03:35;99264.56;;;10.13;78.71
39267;BME280;24967;51.154;13.812;2023-02-21T04:06:02;99283.22;;;10.21;78.16
39267;BME280;24967;51.154;13.812;2023-02-21T04:08:29;99274.66;;;10.09;78.69
39267;BME280;24967;51.154;13.812;2023-02-21T04:10:55;99278.06;;;10.19;78.41
39267;BME280;24967;51.154;13.812;2023-02-21T04:13:23;99272.16;;;10.07;78.51
39267;BME280;24967;51.154;13.812;2023-02-21T04:15:50;99272.91;;;10.18;78.35
39267;BME280;24967;51.154;13.812;2023-02-21T04:18:16;99261.28;;;10.37;77.94
39267;BME280;24967;51.154;13.812;2023-02-21T04:20:43;99267.75;;;10.16;78.54
39267;BME280;24967;51.154;13.812;2023-02-21T04:23:11;99265.97;;;10.25;78.34
39267;BME280;24967;51.154;13.812;2023-02-21T04:25:37;99270.25;;;10.18;78.66
39267;BME280;24967;51.154;13.812;2023-02-21T04:28:05;99266.78;;;10.17;78.78
39267;BME280;24967;51.154;13.812;2023-02-21T04:30:32;99242.75;;;9.83;80.44
39267;BME280;24967;51.154;13.812;2023-02-21T04:32:59;99259.88;;;9.89;80.30
39267;BME280;24967;51.154;13.812;2023-02-21T04:35:27;99273.38;;;9.95;80.14
39267;BME280;24967;51.154;13.812;2023-02-21T04:37:54;99263.00;;;10.02;80.50
39267;BME280;24967;51.154;13.812;2023-02-21T04:40:20;99270.41;;;10.16;80.04
39267;BME280;24967;51.154;13.812;2023-02-21T04:42:47;99272.09;;;10.17;80.03
39267;BME280;24967;51.154;13.812;2023-02-21T04:45:14;99273.94;;;10.25;79.52
39267;BME280;24967;51.154;13.812;2023-02-21T04:47:41;99276.03;;;9.95;80.75
39267;BME280;24967;51.154;13.812;2023-02-21T04:50:08;99266.63;;;10.01;80.87
39267;BME280;24967;51.154;13.812;2023-02-21T04:52:34;99271.94;;;10.01;81.05
39267;BME280;24967;51.154;13.812;2023-02-21T04:55:01;99260.41;;;9.92;81.47
39267;BME280;24967;51.154;13.812;2023-02-21T04:57:27;99273.00;;;10.08;81.27
39267;BME280;24967;51.154;13.812;2023-02-21T04:59:58;99273.22;;;10.15;80.67
39267;BME280;24967;51.154;13.812;2023-02-21T05:02:25;99264.16;;;10.25;80.35
39267;BME280;24967;51.154;13.812;2023-02-21T05:04:53;99263.44;;;10.15;80.56
39267;BME280;24967;51.154;13.812;2023-02-21T05:07:20;99259.34;;;10.03;81.11
39267;BME280;24967;51.154;13.812;2023-02-21T05:09:46;99249.88;;;10.00;81.51
39267;BME280;24967;51.154;13.812;2023-02-21T05:12:12;99265.19;;;9.89;81.99
39267;BME280;24967;51.154;13.812;2023-02-21T05:14:39;99253.34;;;10.01;81.85
39267;BME280;24967;51.154;13.812;2023-02-21T05:17:06;99250.91;;;10.07;81.38
39267;BME280;24967;51.154;13.812;2023-02-21T05:19:32;99248.13;;;9.91;82.13
39267;BME280;24967;51.154;13.812;2023-02-21T05:22:01;99252.22;;;10.03;81.59
39267;BME280;24967;51.154;13.812;2023-02-21T05:24:32;99258.75;;;9.91;82.23
39267;BME280;24967;51.154;13.812;2023-02-21T05:26:59;99271.50;;;10.05;82.08
39267;BME280;24967;51.154;13.812;2023-02-21T05:29:25;99265.19;;;10.06;81.50
39267;BME280;24967;51.154;13.812;2023-02-21T05:31:51;99273.78;;;10.00;81.67
39267;BME280;24967;51.154;13.812;2023-02-21T05:34:18;99262.91;;;10.12;81.83
39267;BME280;24967;51.154;13.812;2023-02-21T05:36:45;99268.75;;;10.15;80.92
39267;BME280;24967;51.154;13.812;2023-02-21T05:39:12;99273.06;;;10.16;81.03
39267;BME280;24967;51.154;13.812;2023-02-21T05:41:45;99282.53;;;10.37;80.15
39267;BME280;24967;51.154;13.812;2023-02-21T05:44:12;99270.19;;;10.09;81.42
39267;BME280;24967;51.154;13.812;2023-02-21T05:46:38;99273.84;;;10.08;81.50
39267;BME280;24967;51.154;13.812;2023-02-21T05:49:05;99281.22;;;9.97;81.57
39267;BME280;24967;51.154;13.812;2023-02-21T05:51:33;99275.44;;;10.01;81.98
39267;BME280;24967;51.154;13.812;2023-02-21T05:54:00;99287.25;;;10.07;81.54
39267;BME280;24967;51.154;13.812;2023-02-21T05:56:28;99288.03;;;10.17;80.79
39267;BME280;24967;51.154;13.812;2023-02-21T05:58:54;99287.78;;;10.28;80.50
39267;BME280;24967;51.154;13.812;2023-02-21T06:01:21;99292.56;;;10.43;80.47
39267;BME280;24967;51.154;13.812;2023-02-21T06:03:47;99290.81;;;10.16;81.04
39267;BME280;24967;51.154;13.812;2023-02-21T06:06:14;99287.56;;;10.04;81.88
39267;BME280;24967;51.154;13.812;2023-02-21T06:08:42;99299.72;;;10.06;82.35
39267;BME280;24967;51.154;13.812;2023-02-21T06:11:08;99294.25;;;10.08;81.82
39267;BME280;24967;51.154;13.812;2023-02-21T06:13:36;99299.72;;;10.06;81.87
39267;BME280;24967;51.154;13.812;2023-02-21T06:16:03;99302.44;;;9.97;82.04
39267;BME280;24967;51.154;13.812;2023-02-21T06:18:30;99303.66;;;10.02;81.79
39267;BME280;24967;51.154;13.812;2023-02-21T06:20:57;99299.56;;;10.08;81.93
39267;BME280;24967;51.154;13.812;2023-02-21T06:23:23;99300.78;;;9.96;82.03
39267;BME280;24967;51.154;13.812;2023-02-21T06:25:51;99303.44;;;9.96;82.57
39267;BME280;24967;51.154;13.812;2023-02-21T06:28:17;99319.53;;;9.94;82.39
39267;BME280;24967;51.154;13.812;2023-02-21T06:30:45;99322.66;;;9.90;82.89
39267;BME280;24967;51.154;13.812;2023-02-21T06:33:11;99325.53;;;9.96;82.74
39267;BME280;24967;51.154;13.812;2023-02-21T06:35:37;99317.03;;;10.11;82.10
39267;BME280;24967;51.154;13.812;2023-02-21T06:38:04;99321.75;;;9.99;82.50
39267;BME280;24967;51.154;13.812;2023-02-21T06:40:30;99340.47;;;9.97;83.26
39267;BME280;24967;51.154;13.812;2023-02-21T06:42:57;99332.81;;;9.94;82.88
39267;BME280;24967;51.154;13.812;2023-02-21T06:45:23;99336.59;;;9.92;83.58
39267;BME280;24967;51.154;13.812;2023-02-21T06:47:51;99332.09;;;10.10;82.76
39267;BME280;24967;51.154;13.812;2023-02-21T06:50:17;99338.31;;;10.19;82.49
39267;BME280;24967;51.154;13.812;2023-02-21T06:52:44;99345.31;;;10.38;81.21
39267;BME280;24967;51.154;13.812;2023-02-21T06:55:10;99333.72;;;10.21;81.45
39267;BME280;24967;51.154;13.812;2023-02-21T06:57:37;99353.66;;;10.25;81.49
39267;BME280;24967;51.154;13.812;2023-02-21T07:00:04;99353.75;;;9.97;82.82
39267;BME280;24967;51.154;13.812;2023-02-21T07:02:31;99352.22;;;9.95;83.40
39267;BME280;24967;51.154;13.812;2023-02-21T07:04:59;99357.16;;;10.07;83.19
39267;BME280;24967;51.154;13.812;2023-02-21T07:07:25;99366.34;;;10.13;82.66
39267;BME280;24967;51.154;13.812;2023-02-21T07:09:51;99363.44;;;9.89;83.68
39267;BME280;24967;51.154;13.812;2023-02-21T07:12:18;99371.59;;;10.05;83.32
39267;BME280;24967;51.154;13.812;2023-02-21T07:14:44;99384.00;;;10.22;83.32
39267;BME280;24967;51.154;13.812;2023-02-21T07:17:11;99382.16;;;10.32;82.38
39267;BME280;24967;51.154;13.812;2023-02-21T07:19:37;99391.56;;;10.27;82.83
39267;BME280;24967;51.154;13.812;2023-02-21T07:22:05;99379.00;;;10.19;82.74
39267;BME280;24967;51.154;13.812;2023-02-21T07:24:31;99385.41;;;10.08;83.00
39267;BME280;24967;51.154;13.812;2023-02-21T07:26:57;99397.75;;;10.00;83.63
39267;BME280;24967;51.154;13.812;2023-02-21T07:29:25;99385.69;;;10.05;83.60
39267;BME280;24967;51.154;13.812;2023-02-21T07:31:51;99392.97;;;10.03;83.04
39267;BME280;24967;51.154;13.812;2023-02-21T07:34:18;99395.94;;;10.00;83.27
39267;BME280;24967;51.154;13.812;2023-02-21T07:36:46;99396.53;;;10.12;82.92
39267;BME280;24967;51.154;13.812;2023-02-21T07:39:14;99391.63;;;10.17;82.11
39267;BME280;24967;51.154;13.812;2023-02-21T07:41:40;99391.16;;;10.22;82.33
39267;BME280;24967;51.154;13.812;2023-02-21T07:44:07;99388.34;;;10.05;82.64
39267;BME280;24967;51.154;13.812;2023-02-21T07:46:34;99386.66;;;10.04;82.93
39267;BME280;24967;51.154;13.812;2023-02-21T07:49:00;99383.88;;;10.06;82.91
39267;BME280;24967;51.154;13.812;2023-02-21T07:51:27;99377.63;;;9.97;83.10
39267;BME280;24967;51.154;13.812;2023-02-21T07:53:54;99389.31;;;10.04;82.86
39267;BME280;24967;51.154;13.812;2023-02-21T07:56:22;99389.47;;;10.03;83.10
39267;BME280;24967;51.154;13.812;2023-02-21T07:58:49;99395.50;;;10.05;83.14
39267;BME280;24967;51.154;13.812;2023-02-21T08:01:15;99383.13;;;9.96;83.42
39267;BME280;24967;51.154;13.812;2023-02-21T08:03:42;99377.19;;;10.02;82.98
39267;BME280;24967;51.154;13.812;2023-02-21T08:06:09;99395.84;;;9.92;83.89
39267;BME280;24967;51.154;13.812;2023-02-21T08:08:35;99392.97;;;10.03;83.54
39267;BME280;24967;51.154;13.812;2023-02-21T08:11:02;99394.88;;;10.11;83.35
39267;BME280;24967;51.154;13.812;2023-02-21T08:13:29;99400.88;;;10.13;83.09
39267;BME280;24967;51.154;13.812;2023-02-21T08:15:56;99405.13;;;10.06;83.37
39267;BME280;24967;51.154;13.812;2023-02-21T08:18:23;99408.59;;;10.06;83.61
39267;BME280;24967;51.154;13.812;2023-02-21T08:20:50;99411.47;;;9.95;83.93
39267;BME280;24967;51.154;13.812;2023-02-21T08:23:16;99415.00;;;10.14;83.45
39267;BME280;24967;51.154;13.812;2023-02-21T08:25:43;99422.28;;;10.12;83.47
39267;BME280;24967;51.154;13.812;2023-02-21T08:28:10;99424.25;;;10.09;83.94
39267;BME280;24967;51.154;13.812;2023-02-21T08:30:38;99416.44;;;10.08;83.79
39267;BME280;24967;51.154;13.812;2023-02-21T08:33:04;99418.56;;;10.22;83.51
39267;BME280;24967;51.154;13.812;2023-02-21T08:35:31;99423.84;;;10.04;84.31
39267;BME280;24967;51.154;13.812;2023-02-21T08:37:57;99419.47;;;10.13;83.86
39267;BME280;24967;51.154;13.812;2023-02-21T08:40:27;99421.63;;;10.27;83.18
39267;BME280;24967;51.154;13.812;2023-02-21T08:42:54;99424.34;;;10.18;83.51
39267;BME280;24967;51.154;13.812;2023-02-21T08:45:22;99420.63;;;10.11;84.14
39267;BME280;24967;51.154;13.812;2023-02-21T08:47:51;99426.50;;;10.04;84.20
39267;BME280;24967;51.154;13.812;2023-02-21T08:50:19;99432.31;;;10.18;84.12
39267;BME280;24967;51.154;13.812;2023-02-21T08:52:46;99433.72;;;10.12;83.91
39267;BME280;24967;51.154;13.812;2023-02-21T08:55:13;99439.81;;;10.22;83.76
39267;BME280;24967;51.154;13.812;2023-02-21T08:57:39;99431.31;;;10.19;83.03
39267;BME280;24967;51.154;13.812;2023-02-21T09:00:07;99446.91;;;10.31;83.13
39267;BME280;24967;51.154;13.812;2023-02-21T09:02:35;99437.66;;;10.36;82.58
39267;BME280;24967;51.154;13.812;2023-02-21T09:05:06;99430.19;;;10.21;83.23
39267;BME280;24967;51.154;13.812;2023-02-21T09:07:32;99428.41;;;10.12;83.80
39267;BME280;24967;51.154;13.812;2023-02-21T09:10:00;99434.09;;;10.27;83.27
39267;BME280;24967;51.154;13.812;2023-02-21T09:12:26;99439.63;;;10.34;83.06
39267;BME280;24967;51.154;13.812;2023-02-21T09:14:52;99429.03;;;10.24;83.38
39267;BME280;24967;51.154;13.812;2023-02-21T09:17:19;99424.69;;;10.50;82.30
39267;BME280;24967;51.154;13.812;2023-02-21T09:19:45;99433.91;;;10.46;81.93
39267;BME280;24967;51.154;13.812;2023-02-21T09:22:13;99430.03;;;10.41;82.01
39267;BME280;24967;51.154;13.812;2023-02-21T09:24:40;99429.72;;;10.62;81.40
39267;BME280;24967;51.154;13.812;2023-02-21T09:27:07;99442.06;;;10.63;81.55
39267;BME280;24967;51.154;13.812;2023-02-21T09:29:35;99437.66;;;10.53;82.55
39267;BME280;24967;51.154;13.812;2023-02-21T09:32:02;99428.69;;;10.37;85.31
39267;BME280;24967;51.154;13.812;2023-02-21T09:34:29;99438.78;;;10.51;85.43
39267;BME280;24967;51.154;13.812;2023-02-21T09:36:55;99439.53;;;10.43;84.54
39267;BME280;24967;51.154;13.812;2023-02-21T09:39:23;99448.28;;;10.36;84.72
39267;BME280;24967;51.154;13.812;2023-02-21T09:41:50;99446.69;;;10.43;84.25
39267;BME280;24967;51.154;13.812;2023-02-21T09:44:22;99445.69;;;10.26;84.41
39267;BME280;24967;51.154;13.812;2023-02-21T09:46:51;99442.28;;;10.69;82.95
39267;BME280;24967;51.154;13.812;2023-02-21T09:49:23;99446.06;;;10.49;83.44
39267;BME280;24967;51.154;13.812;2023-02-21T09:51:52;99434.84;;;10.55;83.12
39267;BME280;24967;51.154;13.812;2023-02-21T09:54:25;99440.66;;;10.59;82.66
39267;BME280;24967;51.154;13.812;2023-02-21T09:56:56;99435.59;;;10.65;82.27
39267;BME280;24967;51.154;13.812;2023-02-21T09:59:24;99440.31;;;10.71;81.99
39267;BME280;24967;51.154;13.812;2023-02-21T10:01:59;99445.63;;;10.71;81.54
39267;BME280;24967;51.154;13.812;2023-02-21T10:04:39;99444.72;;;10.63;81.81
39267;BME280;24967;51.154;13.812;2023-02-21T10:07:13;99440.63;;;10.50;82.20
39267;BME280;24967;51.154;13.812;2023-02-21T10:09:46;99453.88;;;10.86;81.09
39267;BME280;24967;51.154;13.812;2023-02-21T10:12:19;99447.06;;;10.48;82.10
39267;BME280;24967;51.154;13.812;2023-02-21T10:15:07;99445.75;;;10.70;81.88
39267;BME280;24967;51.154;13.812;2023-02-21T10:17:42;99450.63;;;10.74;81.61
39267;BME280;24967;51.154;13.812;2023-02-21T10:20:14;99454.56;;;10.70;81.82
39267;BME280;24967;51.154;13.812;2023-02-21T10:22:43;99454.34;;;10.82;81.35
39267;BME280;24967;51.154;13.812;2023-02-21T10:25:19;99456.81;;;10.83;80.41
39267;BME280;24967;51.154;13.812;2023-02-21T10:27:46;99441.72;;;10.84;80.86
39267;BME280;24967;51.154;13.812;2023-02-21T10:30:18;99456.81;;;10.83;80.91
39267;BME280;24967;51.154;13.812;2023-02-21T10:32:45;99461.88;;;11.12;80.18
39267;BME280;24967;51.154;13.812;2023-02-21T10:35:12;99463.94;;;11.00;80.28
39267;BME280;24967;51.154;13.812;2023-02-21T10:37:41;99456.19;;;11.07;79.45
39267;BME280;24967;51.154;13.812;2023-02-21T10:40:26;99455.81;;;11.02;80.09
39267;BME280;24967;51.154;13.812;2023-02-21T10:42:55;99465.06;;;11.16;79.22
39267;BME280;24967;51.154;13.812;2023-02-21T10:45:31;99459.53;;;11.35;78.22
39267;BME280;24967;51.154;13.812;2023-02-21T10:48:02;99449.84;;;11.26;77.79
39267;BME280;24967;51.154;13.812;2023-02-21T10:50:49;99447.63;;;11.21;78.00
39267;BME280;24967;51.154;13.812;2023-02-21T10:53:25;99457.66;;;11.28;77.65
39267;BME280;24967;51.154;13.812;2023-02-21T10:56:20;99458.28;;;11.21;77.79
39267;BME280;24967;51.154;13.812;2023-02-21T10:58:49;99462.03;;;11.11;78.06
39267;BME280;24967;51.154;13.812;2023-02-21T11:01:17;99459.00;;;11.06;78.41
39267;BME280;24967;51.154;13.812;2023-02-21T11:03:48;99455.75;;;10.94;78.19
39267;BME280;24967;51.154;13.812;2023-02-21T11:06:24;99458.53;;;11.10;78.23
39267;BME280;24967;51.154;13.812;2023-02-21T11:08:52;99463.00;;;11.10;78.55
39267;BME280;24967;51.154;13.812;2023-02-21T11:11:33;99457.41;;;10.95;79.07
39267;BME280;24967;51.154;13.812;2023-02-21T11:14:12;99455.13;;;11.00;78.98
39267;BME280;24967;51.154;13.812;2023-02-21T11:16:44;99458.13;;;11.23;78.41
39267;BME280;24967;51.154;13.812;2023-02-21T11:19:13;99467.09;;;11.22;78.06
39267;BME280;24967;51.154;13.812;2023-02-21T11:21:40;99456.25;;;11.15;78.11
39267;BME280;24967;51.154;13.812;2023-02-21T11:24:10;99456.69;;;11.29;77.80
39267;BME280;24967;51.154;13.812;2023-02-21T11:26:45;99455.47;;;11.23;78.30
39267;BME280;24967;51.154;13.812;2023-02-21T11:29:15;99453.78;;;11.22;78.15
39267;BME280;24967;51.154;13.812;2023-02-21T11:31:42;99453.84;;;11.30;77.85
39267;BME280;24967;51.154;13.812;2023-02-21T11:34:12;99454.81;;;11.03;78.77
39267;BME280;24967;51.154;13.812;2023-02-21T11:36:41;99445.13;;;10.94;78.95
39267;BME280;24967;51.154;13.812;2023-02-21T11:39:14;99442.22;;;11.05;79.53
39267;BME280;24967;51.154;13.812;2023-02-21T11:41:46;99434.53;;;11.02;79.42
39267;BME280;24967;51.154;13.812;2023-02-21T11:44:28;99438.59;;;10.88;79.18
39267;BME280;24967;51.154;13.812;2023-02-21T11:47:02;99450.13;;;10.97;79.41
39267;BME280;24967;51.154;13.812;2023-02-21T11:49:37;99453.81;;;11.04;79.13
39267;BME280;24967;51.154;13.812;2023-02-21T11:52:09;99458.31;;;11.04;79.56
39267;BME280;24967;51.154;13.812;2023-02-21T11:54:37;99454.81;;;11.03;79.98
39267;BME280;24967;51.154;13.812;2023-02-21T11:57:11;99445.13;;;11.20;79.51
39267;BME280;24967;51.154;13.812;2023-02-21T11:59:44;99445.97;;;11.20;79.41
39267;BME280;24967;51.154;13.812;2023-02-21T12:04:48;99453.47;;;11.25;78.72
39267;BME280;24967;51.154;13.812;2023-02-21T12:07:22;99449.47;;;11.21;78.54
39267;BME280;24967;51.154;13.812;2023-02-21T12:10:00;99448.47;;;11.22;78.25
39267;BME280;24967;51.154;13.812;2023-02-21T12:12:40;99451.75;;;11.42;78.09
39267;BME280;24967;51.154;13.812;2023-02-21T12:15:19;99456.50;;;11.30;78.03
39267;BME280;24967;51.154;13.812;2023-02-21T12:17:55;99454.78;;;11.21;78.48
39267;BME280;24967;51.154;13.812;2023-02-21T12:20:47;99441.34;;;11.22;78.66
39267;BME280;24967;51.154;13.812;2023-02-21T12:23:22;99433.47;;;11.47;78.10
39267;BME280;24967;51.154;13.812;2023-02-21T12:26:20;99445.34;;;11.27;78.07
39267;BME280;24967;51.154;13.812;2023-02-21T12:29:01;99437.94;;;11.38;77.80
39267;BME280;24967;51.154;13.812;2023-02-21T12:31:41;99437.00;;;11.56;77.43
39267;BME280;24967;51.154;13.812;2023-02-21T12:34:13;99428.59;;;11.68;76.55
39267;BME280;24967;51.154;13.812;2023-02-21T12:36:51;99422.69;;;11.91;75.56
39267;BME280;24967;51.154;13.812;2023-02-21T12:39:34;99428.41;;;11.62;76.86
39267;BME280;24967;51.154;13.812;2023-02-21T12:42:19;99416.56;;;11.64;76.77
39267;BME280;24967;51.154;13.812;2023-02-21T12:45:01;99418.44;;;11.72;76.63
39267;BME280;24967;51.154;13.812;2023-02-21T12:47:32;99418.25;;;11.65;76.39
39267;BME280;24967;51.154;13.812;2023-02-21T12:50:10;99421.34;;;11.53;77.09
39267;BME280;24967;51.154;13.812;2023-02-21T12:52:48;99415.41;;;11.67;76.75
39267;BME280;24967;51.154;13.812;2023-02-21T12:55:21;99409.25;;;11.66;76.23
39267;BME280;24967;51.154;13.812;2023-02-21T12:57:52;99410.50;;;11.80;76.10
39267;BME280;24967;51.154;13.812;2023-02-21T13:00:24;99405.97;;;11.73;76.29
39267;BME280;24967;51.154;13.812;2023-02-21T13:03:00;99404.13;;;11.73;76.38
39267;BME280;24967;51.154;13.812;2023-02-21T13:05:36;99400.81;;;11.79;75.61
39267;BME280;24967;51.154;13.812;2023-02-21T13:08:08;99394.25;;;12.00;74.99
39267;BME280;24967;51.154;13.812;2023-02-21T13:10:47;99392.00;;;11.79;75.33
39267;BME280;24967;51.154;13.812;2023-02-21T13:13:19;99396.00;;;11.83;75.11
39267;BME280;24967;51.154;13.812;2023-02-21T13:15:49;99398.47;;;11.76;75.36
39267;BME280;24967;51.154;13.812;2023-02-21T13:18:20;99387.66;;;11.78;75.45
39267;BME280;24967;51.154;13.812;2023-02-21T13:20:52;99385.63;;;11.63;75.73
39267;BME280;24967;51.154;13.812;2023-02-21T13:23:40;99384.75;;;11.55;76.27
39267;BME280;24967;51.154;13.812;2023-02-21T13:26:27;99387.91;;;11.50;76.23
39267;BME280;24967;51.154;13.812;2023-02-21T13:28:57;99389.84;;;11.74;75.94
39267;BME280;24967;51.154;13.812;2023-02-21T13:31:27;99384.63;;;11.64;75.53
39267;BME280;24967;51.154;13.812;2023-02-21T13:34:02;99389.28;;;11.70;75.41